Time,TemperatureF,DewpointF,PressureIn,WindDirection,WindDirectionDegrees,WindSpeedMPH,WindSpeedGustMPH,Humidity,HourlyPrecipIn,Conditions,Clouds,dailyrainin,SoftwareType,DateUTC
2013-03-10 00:01:00,62.0,48.0,29.77,WSW,249,1.0,9.0,61,0.00,,,0.00,,2013-03-09 22:01:00,
2013-03-10 00:11:00,62.0,48.0,29.77,WSW,249,1.0,9.0,61,0.00,,,0.00,,2013-03-09 22:11:00,
2013-03-10 00:21:00,62.0,48.0,29.77,SE,142,5.0,6.0,61,0.00,,,0.00,,2013-03-09 22:21:00,
2013-03-10 00:32:00,62.0,48.0,29.77,SE,142,5.0,6.0,61,0.00,,,0.00,,2013-03-09 22:32:00,
2013-03-10 00:42:00,62.0,48.0,29.77,SE,142,5.0,6.0,61,0.00,,,0.00,,2013-03-09 22:42:00,
2013-03-10 00:52:00,61.0,49.0,29.77,WNW,282,3.0,8.0,64,0.00,,,0.00,,2013-03-09 22:52:00,
2013-03-10 01:00:00,61.0,49.0,29.77,SSW,197,2.0,6.0,64,0.00,,,0.00,,2013-03-09 23:00:00,
2013-03-10 01:01:00,61.0,49.0,29.77,WNW,282,3.0,8.0,64,0.00,,,0.00,,2013-03-09 23:01:00,
2013-03-10 01:11:00,61.0,49.0,29.77,WNW,282,3.0,8.0,64,0.00,,,0.00,,2013-03-09 23:11:00,
2013-03-10 01:21:00,61.0,49.0,29.77,SSW,197,2.0,6.0,64,0.00,,,0.00,,2013-03-09 23:21:00,
2013-03-10 01:31:00,61.0,49.0,29.77,SSW,197,2.0,6.0,64,0.00,,,0.00,,2013-03-09 23:31:00,
2013-03-10 01:42:00,61.0,49.0,29.77,SSW,197,2.0,6.0,64,0.00,,,0.00,,2013-03-09 23:42:00,
2013-03-10 01:52:00,61.0,49.0,29.77,SSW,197,2.0,6.0,64,0.00,,,0.00,,2013-03-09 23:52:00,
2013-03-10 02:22:00,60.0,48.0,29.77,WSW,258,1.0,7.0,64,0.00,,,0.00,,2013-03-10 00:22:00,
2013-03-10 02:32:00,60.0,48.0,29.77,WSW,258,1.0,7.0,64,0.00,,,0.00,,2013-03-10 00:32:00,
2013-03-10 02:43:00,60.0,48.0,29.77,WSW,258,1.0,7.0,64,0.00,,,0.00,,2013-03-10 00:43:00,
2013-03-10 02:52:00,60.0,48.0,29.77,WSW,253,3.0,6.0,64,0.00,,,0.00,,2013-03-10 00:52:00,
2013-03-10 03:00:00,60.0,48.0,29.74,NW,304,2.0,5.0,64,0.00,,,0.00,,2013-03-10 01:00:00,
2013-03-10 03:01:00,60.0,48.0,29.77,WSW,253,3.0,6.0,64,0.00,,,0.00,,2013-03-10 01:01:00,
2013-03-10 03:11:00,60.0,48.0,29.77,WSW,253,3.0,6.0,64,0.00,,,0.00,,2013-03-10 01:11:00,
2013-03-10 03:21:00,60.0,48.0,29.74,NW,304,2.0,5.0,64,0.00,,,0.00,,2013-03-10 01:21:00,
2013-03-10 03:31:00,60.0,48.0,29.74,NW,304,2.0,5.0,64,0.00,,,0.00,,2013-03-10 01:31:00,
2013-03-10 03:42:00,60.0,48.0,29.74,NW,304,2.0,5.0,64,0.00,,,0.00,,2013-03-10 01:42:00,
2013-03-10 03:52:00,60.0,48.0,29.74,NW,304,2.0,5.0,64,0.00,,,0.00,,2013-03-10 01:52:00,
2013-03-10 04:22:00,60.0,47.0,29.77,SW,226,3.0,6.0,63,0.00,,,0.00,,2013-03-10 02:22:00,
2013-03-10 04:32:00,60.0,47.0,29.77,SW,226,3.0,6.0,63,0.00,,,0.00,,2013-03-10 02:32:00,
2013-03-10 04:42:00,60.0,47.0,29.77,SW,226,3.0,6.0,63,0.00,,,0.00,,2013-03-10 02:42:00,
2013-03-10 04:52:00,60.0,48.0,29.77,West,278,4.0,9.0,64,0.00,,,0.00,,2013-03-10 02:52:00,
2013-03-10 05:00:00,60.0,47.0,29.74,SW,229,3.0,9.0,63,0.00,,,0.00,,2013-03-10 03:00:00,
2013-03-10 05:01:00,60.0,48.0,29.77,West,278,4.0,9.0,64,0.00,,,0.00,,2013-03-10 03:01:00,
2013-03-10 05:11:00,60.0,47.0,29.74,SW,229,3.0,9.0,63,0.00,,,0.00,,2013-03-10 03:11:00,
2013-03-10 05:21:00,60.0,47.0,29.74,SW,229,3.0,9.0,63,0.00,,,0.00,,2013-03-10 03:21:00,
2013-03-10 05:31:00,60.0,47.0,29.74,SW,229,3.0,9.0,63,0.00,,,0.00,,2013-03-10 03:31:00,
2013-03-10 05:42:00,60.0,47.0,29.74,SW,229,3.0,9.0,63,0.00,,,0.00,,2013-03-10 03:42:00,
2013-03-10 05:52:00,60.0,47.0,29.74,SW,229,3.0,9.0,63,0.00,,,0.00,,2013-03-10 03:52:00,
2013-03-10 06:22:00,59.0,48.0,29.74,NE,52,3.0,9.0,67,0.00,,,0.00,,2013-03-10 04:22:00,
2013-03-10 06:32:00,59.0,48.0,29.74,NE,52,3.0,9.0,67,0.00,,,0.00,,2013-03-10 04:32:00,
2013-03-10 06:42:00,59.0,48.0,29.74,NE,52,3.0,9.0,67,0.00,,,0.00,,2013-03-10 04:42:00,
2013-03-10 06:52:00,60.0,47.0,29.74,NNW,333,3.0,12.0,63,0.00,,,0.00,,2013-03-10 04:52:00,
2013-03-10 07:00:00,59.0,46.0,29.74,NNW,333,0.0,3.0,63,0.00,,,0.00,,2013-03-10 05:00:00,
2013-03-10 07:01:00,60.0,47.0,29.74,NNW,333,3.0,12.0,63,0.00,,,0.00,,2013-03-10 05:01:00,
2013-03-10 07:11:00,60.0,47.0,29.74,NNW,333,3.0,12.0,63,0.00,,,0.00,,2013-03-10 05:11:00,
2013-03-10 07:21:00,59.0,46.0,29.74,NNW,333,0.0,3.0,63,0.00,,,0.00,,2013-03-10 05:21:00,
2013-03-10 07:31:00,59.0,46.0,29.74,NNW,333,0.0,3.0,63,0.00,,,0.00,,2013-03-10 05:31:00,
2013-03-10 07:42:00,59.0,46.0,29.74,NNW,333,0.0,3.0,63,0.00,,,0.00,,2013-03-10 05:42:00,
2013-03-10 07:52:00,59.0,46.0,29.74,NNW,333,0.0,3.0,63,0.00,,,0.00,,2013-03-10 05:52:00,
2013-03-10 08:11:00,60.0,47.0,29.77,SW,230,3.0,7.0,63,0.00,,,0.00,,2013-03-10 06:11:00,
2013-03-10 08:22:00,60.0,47.0,29.77,SW,230,3.0,7.0,63,0.00,,,0.00,,2013-03-10 06:22:00,
2013-03-10 08:32:00,60.0,47.0,29.77,SW,230,3.0,7.0,63,0.00,,,0.00,,2013-03-10 06:32:00,
2013-03-10 08:42:00,60.0,48.0,29.77,WSW,247,1.0,5.0,64,0.00,,,0.00,,2013-03-10 06:42:00,
2013-03-10 08:52:00,60.0,48.0,29.77,WSW,247,1.0,5.0,64,0.00,,,0.00,,2013-03-10 06:52:00,
2013-03-10 09:01:00,60.0,48.0,29.77,WSW,247,1.0,5.0,64,0.00,,,0.00,,2013-03-10 07:01:00,
2013-03-10 09:11:00,61.0,49.0,29.77,WSW,254,5.0,10.0,64,0.00,,,0.00,,2013-03-10 07:11:00,
2013-03-10 09:21:00,61.0,49.0,29.77,WSW,254,5.0,10.0,64,0.00,,,0.00,,2013-03-10 07:21:00,
2013-03-10 09:31:00,61.0,49.0,29.77,WSW,254,5.0,10.0,64,0.00,,,0.00,,2013-03-10 07:31:00,
2013-03-10 09:42:00,61.0,48.0,29.77,SW,223,4.0,12.0,62,0.00,,,0.00,,2013-03-10 07:42:00,
2013-03-10 09:52:00,61.0,48.0,29.77,SW,223,4.0,12.0,62,0.00,,,0.00,,2013-03-10 07:52:00,
2013-03-10 10:01:00,61.0,48.0,29.77,SW,223,4.0,12.0,62,0.00,,,0.00,,2013-03-10 08:01:00,
2013-03-10 10:11:00,62.0,47.0,29.80,WSW,250,5.0,9.0,59,0.00,,,0.00,,2013-03-10 08:11:00,
2013-03-10 10:21:00,62.0,47.0,29.80,WSW,250,5.0,9.0,59,0.00,,,0.00,,2013-03-10 08:21:00,
2013-03-10 10:31:00,62.0,47.0,29.80,WSW,250,5.0,9.0,59,0.00,,,0.00,,2013-03-10 08:31:00,
2013-03-10 10:42:00,63.0,48.0,29.77,WSW,238,5.0,8.0,57,0.00,,,0.00,,2013-03-10 08:42:00,
2013-03-10 10:51:00,63.0,48.0,29.77,WSW,238,5.0,8.0,57,0.00,,,0.00,,2013-03-10 08:51:00,
2013-03-10 11:01:00,63.0,48.0,29.77,WSW,238,5.0,8.0,57,0.00,,,0.00,,2013-03-10 09:01:00,
2013-03-10 11:11:00,64.0,47.0,29.77,South,190,4.0,8.0,55,0.00,,,0.00,,2013-03-10 09:11:00,
2013-03-10 11:21:00,64.0,47.0,29.77,South,190,4.0,8.0,55,0.00,,,0.00,,2013-03-10 09:21:00,
2013-03-10 11:31:00,64.0,47.0,29.77,South,190,4.0,8.0,55,0.00,,,0.00,,2013-03-10 09:31:00,
2013-03-10 11:42:00,64.0,47.0,29.77,WSW,245,5.0,8.0,54,0.00,,,0.00,,2013-03-10 09:42:00,
2013-03-10 11:51:00,64.0,47.0,29.77,WSW,245,5.0,8.0,54,0.00,,,0.00,,2013-03-10 09:51:00,
2013-03-10 12:01:00,64.0,47.0,29.77,WSW,245,5.0,8.0,54,0.00,,,0.00,,2013-03-10 10:01:00,
2013-03-10 12:11:00,64.0,47.0,29.77,WSW,245,5.0,8.0,54,0.00,,,0.00,,2013-03-10 10:11:00,
2013-03-10 12:21:00,66.0,49.0,29.77,SW,224,5.0,7.0,55,0.00,,,0.00,,2013-03-10 10:21:00,
2013-03-10 12:31:00,66.0,49.0,29.77,SW,224,5.0,7.0,55,0.00,,,0.00,,2013-03-10 10:31:00,
2013-03-10 12:42:00,66.0,47.0,29.77,SSE,167,5.0,8.0,51,0.00,,,0.00,,2013-03-10 10:42:00,
2013-03-10 12:52:00,66.0,47.0,29.77,SSE,167,5.0,8.0,51,0.00,,,0.00,,2013-03-10 10:52:00,
2013-03-10 13:01:00,66.0,47.0,29.77,SSE,167,5.0,8.0,51,0.00,,,0.00,,2013-03-10 11:01:00,
2013-03-10 13:11:00,67.0,46.0,29.77,SE,142,5.0,9.0,47,0.00,,,0.00,,2013-03-10 11:11:00,
2013-03-10 13:21:00,67.0,46.0,29.77,SE,142,5.0,9.0,47,0.00,,,0.00,,2013-03-10 11:21:00,
2013-03-10 13:31:00,67.0,46.0,29.77,SE,142,5.0,9.0,47,0.00,,,0.00,,2013-03-10 11:31:00,
2013-03-10 13:42:00,67.0,46.0,29.77,SE,142,5.0,9.0,47,0.00,,,0.00,,2013-03-10 11:42:00,
2013-03-10 13:52:00,68.0,46.0,29.74,WSW,239,5.0,9.0,45,0.00,,,0.00,,2013-03-10 11:52:00,
2013-03-10 14:01:00,68.0,46.0,29.74,WSW,239,5.0,9.0,45,0.00,,,0.00,,2013-03-10 12:01:00,
2013-03-10 14:11:00,68.0,46.0,29.74,WSW,239,5.0,9.0,45,0.00,,,0.00,,2013-03-10 12:11:00,
2013-03-10 14:21:00,69.0,46.0,29.74,SW,214,6.0,9.0,44,0.00,,,0.00,,2013-03-10 12:21:00,
2013-03-10 14:31:00,69.0,46.0,29.74,SW,214,6.0,9.0,44,0.00,,,0.00,,2013-03-10 12:31:00,
2013-03-10 14:42:00,69.0,46.0,29.74,SW,214,6.0,9.0,44,0.00,,,0.00,,2013-03-10 12:42:00,
2013-03-10 14:51:00,66.0,46.0,29.74,SW,233,5.0,10.0,48,0.00,,,0.00,,2013-03-10 12:51:00,
2013-03-10 15:00:00,66.0,47.0,29.74,SSW,193,4.0,9.0,50,0.00,,,0.00,,2013-03-10 13:00:00,
2013-03-10 15:01:00,66.0,46.0,29.74,SW,233,5.0,10.0,48,0.00,,,0.00,,2013-03-10 13:01:00,
2013-03-10 15:11:00,66.0,46.0,29.74,SW,233,5.0,10.0,48,0.00,,,0.00,,2013-03-10 13:11:00,
2013-03-10 15:21:00,66.0,47.0,29.74,SSW,193,4.0,9.0,50,0.00,,,0.00,,2013-03-10 13:21:00,
2013-03-10 15:31:00,66.0,47.0,29.74,SSW,193,4.0,9.0,50,0.00,,,0.00,,2013-03-10 13:31:00,
2013-03-10 15:42:00,66.0,47.0,29.74,SSW,193,4.0,9.0,50,0.00,,,0.00,,2013-03-10 13:42:00,
2013-03-10 15:52:00,66.0,47.0,29.74,SSW,193,4.0,9.0,50,0.00,,,0.00,,2013-03-10 13:52:00,
2013-03-10 16:22:00,76.0,48.0,29.71,South,177,6.0,9.0,37,0.00,,,0.00,,2013-03-10 14:22:00,
2013-03-10 16:32:00,76.0,48.0,29.71,South,177,6.0,9.0,37,0.00,,,0.00,,2013-03-10 14:32:00,
2013-03-10 16:42:00,76.0,48.0,29.71,South,177,6.0,9.0,37,0.00,,,0.00,,2013-03-10 14:42:00,
2013-03-10 16:51:00,68.0,48.0,29.71,SSW,200,4.0,10.0,49,0.00,,,0.00,,2013-03-10 14:51:00,
2013-03-10 17:01:00,68.0,48.0,29.71,SSW,200,4.0,10.0,49,0.00,,,0.00,,2013-03-10 15:01:00,
2013-03-10 17:11:00,68.0,48.0,29.71,SSW,200,4.0,10.0,49,0.00,,,0.00,,2013-03-10 15:11:00,
2013-03-10 17:21:00,67.0,48.0,29.71,SSW,213,5.0,9.0,50,0.00,,,0.00,,2013-03-10 15:21:00,
2013-03-10 17:31:00,67.0,48.0,29.71,SSW,213,5.0,9.0,50,0.00,,,0.00,,2013-03-10 15:31:00,
2013-03-10 17:42:00,67.0,48.0,29.71,SSW,213,5.0,9.0,50,0.00,,,0.00,,2013-03-10 15:42:00,
2013-03-10 17:52:00,72.0,51.0,29.71,SSW,211,2.0,6.0,48,0.00,,,0.00,,2013-03-10 15:52:00,
2013-03-10 18:01:00,72.0,51.0,29.71,SSW,211,2.0,6.0,48,0.00,,,0.00,,2013-03-10 16:01:00,
2013-03-10 18:11:00,72.0,51.0,29.71,SSW,211,2.0,6.0,48,0.00,,,0.00,,2013-03-10 16:11:00,
2013-03-10 18:21:00,69.0,50.0,29.71,SW,235,2.0,5.0,50,0.00,,,0.00,,2013-03-10 16:21:00,
2013-03-10 18:31:00,69.0,50.0,29.71,SW,235,2.0,5.0,50,0.00,,,0.00,,2013-03-10 16:31:00,
2013-03-10 18:42:00,69.0,50.0,29.71,SW,235,2.0,5.0,50,0.00,,,0.00,,2013-03-10 16:42:00,
2013-03-10 18:52:00,66.0,49.0,29.71,WSW,245,0.0,3.0,55,0.00,,,0.00,,2013-03-10 16:52:00,
2013-03-10 19:01:00,66.0,49.0,29.71,WSW,245,0.0,3.0,55,0.00,,,0.00,,2013-03-10 17:01:00,
2013-03-10 19:11:00,66.0,49.0,29.71,WSW,245,0.0,3.0,55,0.00,,,0.00,,2013-03-10 17:11:00,
2013-03-10 19:21:00,65.0,49.0,29.71,NNW,341,0.0,5.0,57,0.00,,,0.00,,2013-03-10 17:21:00,
2013-03-10 19:31:00,65.0,49.0,29.71,NNW,341,0.0,5.0,57,0.00,,,0.00,,2013-03-10 17:31:00,
2013-03-10 19:41:00,65.0,49.0,29.71,NNW,341,0.0,5.0,57,0.00,,,0.00,,2013-03-10 17:41:00,
2013-03-10 19:51:00,65.0,49.0,29.71,NNW,341,0.0,3.0,57,0.00,,,0.00,,2013-03-10 17:51:00,
2013-03-10 20:01:00,65.0,49.0,29.71,NNW,341,0.0,3.0,57,0.00,,,0.00,,2013-03-10 18:01:00,
2013-03-10 20:11:00,65.0,49.0,29.71,NNW,341,0.0,0.0,57,0.00,,,0.00,,2013-03-10 18:11:00,
2013-03-10 20:21:00,65.0,49.0,29.71,NNW,341,0.0,0.0,57,0.00,,,0.00,,2013-03-10 18:21:00,
2013-03-10 20:31:00,65.0,49.0,29.71,NNW,341,0.0,0.0,57,0.00,,,0.00,,2013-03-10 18:31:00,
2013-03-10 20:42:00,65.0,49.0,29.71,NNW,341,0.0,0.0,57,0.00,,,0.00,,2013-03-10 18:42:00,
2013-03-10 20:52:00,64.0,50.0,29.71,WSW,244,5.0,7.0,60,0.00,,,0.00,,2013-03-10 18:52:00,
2013-03-10 21:01:00,64.0,50.0,29.71,WSW,244,5.0,7.0,60,0.00,,,0.00,,2013-03-10 19:01:00,
2013-03-10 21:11:00,64.0,50.0,29.71,WSW,244,5.0,7.0,60,0.00,,,0.00,,2013-03-10 19:11:00,
2013-03-10 21:21:00,63.0,51.0,29.71,West,259,3.0,7.0,66,0.00,,,0.00,,2013-03-10 19:21:00,
2013-03-10 21:31:00,63.0,51.0,29.71,West,259,3.0,7.0,66,0.00,,,0.00,,2013-03-10 19:31:00,
2013-03-10 21:42:00,63.0,51.0,29.71,West,259,3.0,7.0,66,0.00,,,0.00,,2013-03-10 19:42:00,
2013-03-10 21:52:00,63.0,53.0,29.71,West,259,0.0,3.0,69,0.00,,,0.00,,2013-03-10 19:52:00,
2013-03-10 22:01:00,63.0,53.0,29.71,West,259,0.0,3.0,69,0.00,,,0.00,,2013-03-10 20:01:00,
2013-03-10 22:12:00,63.0,53.0,29.71,West,259,0.0,3.0,69,0.00,,,0.00,,2013-03-10 20:12:00,
2013-03-10 22:21:00,63.0,53.0,29.71,West,259,0.0,0.0,69,0.00,,,0.00,,2013-03-10 20:21:00,
2013-03-10 22:31:00,63.0,53.0,29.71,West,259,0.0,0.0,69,0.00,,,0.00,,2013-03-10 20:31:00,
2013-03-10 22:43:00,63.0,53.0,29.71,West,259,0.0,0.0,69,0.00,,,0.00,,2013-03-10 20:43:00,
2013-03-10 22:52:00,63.0,53.0,29.71,NW,312,0.0,3.0,70,0.00,,,0.00,,2013-03-10 20:52:00,
2013-03-10 23:01:00,63.0,53.0,29.71,NW,312,0.0,3.0,70,0.00,,,0.00,,2013-03-10 21:01:00,
2013-03-10 23:12:00,63.0,53.0,29.71,NW,312,0.0,3.0,70,0.00,,,0.00,,2013-03-10 21:12:00,
2013-03-10 23:22:00,63.0,53.0,29.71,NW,319,0.0,3.0,69,0.00,,,0.00,,2013-03-10 21:22:00,
2013-03-10 23:31:00,63.0,53.0,29.71,NW,319,0.0,3.0,69,0.00,,,0.00,,2013-03-10 21:31:00,
2013-03-10 23:42:00,63.0,53.0,29.71,NW,319,0.0,3.0,69,0.00,,,0.00,,2013-03-10 21:42:00,
2013-03-10 23:52:00,62.0,51.0,29.71,NW,319,0.0,3.0,68,0.00,,,0.00,,2013-03-10 21:52:00,